createdAt,value
2017-04-09T00:00:31.060Z,54.00
2017-04-09T00:01:30.807Z,61.29
2017-04-09T00:02:30.651Z,64.10
2017-04-09T00:03:30.400Z,57.23
2017-04-09T00:04:30.159Z,56.60
2017-04-09T00:05:29.879Z,60.76
2017-04-09T00:06:29.592Z,70.41
2017-04-09T00:07:29.416Z,68.40
2017-04-09T00:08:29.200Z,58.01
2017-04-09T00:09:28.887Z,61.09
2017-04-09T00:10:28.642Z,59.69
2017-04-09T00:11:28.594Z,64.34
2017-04-09T00:12:28.431Z,53.84
2017-04-09T00:13:28.352Z,69.07
2017-04-09T00:14:28.198Z,57.27
2017-04-09T00:15:27.992Z,60.94
2017-04-09T00:16:27.669Z,66.00
2017-04-09T00:17:27.383Z,56.31
2017-04-09T00:18:27.163Z,55.14
2017-04-09T00:19:26.945Z,62.03
2017-04-09T00:20:26.639Z,67.34
2017-04-09T00:21:26.403Z,55.69
2017-04-09T00:22:26.119Z,50.33
2017-04-09T00:23:25.832Z,55.34
2017-04-09T00:24:25.546Z,54.69
2017-04-09T00:25:25.247Z,60.89
2017-04-09T00:26:24.981Z,57.27
2017-04-09T00:27:24.731Z,59.44
2017-04-09T00:28:24.436Z,54.11
2017-04-09T00:29:24.178Z,58.81
2017-04-09T00:30:24.038Z,63.14
2017-04-09T00:31:23.734Z,59.70
2017-04-09T00:32:23.508Z,62.63
2017-04-09T00:33:23.180Z,66.54
2017-04-09T00:34:23.237Z,72.24
2017-04-09T00:35:23.052Z,63.30
2017-04-09T00:36:22.809Z,58.06
2017-04-09T00:37:22.499Z,75.63
2017-04-09T00:38:22.199Z,57.47
2017-04-09T00:39:21.916Z,62.03
2017-04-09T00:40:21.628Z,70.04
2017-04-09T00:41:22.291Z,64.16
2017-04-09T00:42:22.067Z,78.51
2017-04-09T00:43:25.959Z,61.23
2017-04-09T00:44:25.627Z,57.76
2017-04-09T00:45:25.419Z,60.46
2017-04-09T00:46:25.103Z,59.60
2017-04-09T00:47:25.135Z,61.79
2017-04-09T00:48:24.812Z,69.60
2017-04-09T00:49:24.504Z,59.83
2017-04-09T00:50:24.217Z,56.21
2017-04-09T00:51:23.913Z,57.27
2017-04-09T00:52:23.599Z,63.10
2017-04-09T00:53:23.287Z,56.84
2017-04-09T00:54:23.307Z,58.40
2017-04-09T00:55:23.035Z,52.89
2017-04-09T00:56:22.760Z,62.30
2017-04-09T00:57:22.828Z,61.30
2017-04-09T00:58:23.132Z,54.23
2017-04-09T00:59:23.048Z,76.33
2017-04-09T01:00:22.813Z,55.56
2017-04-09T01:01:22.491Z,66.07
2017-04-09T01:02:22.191Z,71.54
2017-04-09T01:03:21.901Z,60.40
2017-04-09T01:04:21.656Z,66.10
2017-04-09T01:05:21.376Z,64.13
2017-04-09T01:06:21.092Z,65.74
2017-04-09T01:07:20.783Z,60.37
2017-04-09T01:08:20.589Z,57.01
2017-04-09T01:09:20.473Z,64.79
2017-04-09T01:10:20.303Z,62.13
2017-04-09T01:11:20.177Z,53.27
2017-04-09T01:12:19.865Z,57.30
2017-04-09T01:13:19.555Z,64.56
2017-04-09T01:14:19.271Z,56.27
2017-04-09T01:15:25.035Z,50.01
2017-04-09T01:16:24.864Z,53.44
2017-04-09T01:17:24.681Z,62.09
2017-04-09T01:18:24.487Z,68.56
2017-04-09T01:19:24.275Z,62.27
2017-04-09T01:20:24.017Z,64.21
2017-04-09T01:21:23.707Z,56.00
2017-04-09T01:22:23.646Z,68.16
2017-04-09T01:23:23.376Z,63.94
2017-04-09T01:24:23.206Z,75.44
2017-04-09T01:25:23.549Z,62.06
2017-04-09T01:26:23.379Z,84.41
2017-04-09T01:27:23.141Z,61.80
2017-04-09T01:28:22.772Z,58.09
2017-04-09T01:29:22.475Z,63.53
2017-04-09T01:30:23.240Z,57.01
2017-04-09T01:31:23.089Z,56.73
2017-04-09T01:32:22.782Z,62.84
2017-04-09T01:33:22.503Z,71.29
2017-04-09T01:34:22.225Z,74.69
2017-04-09T01:35:21.896Z,63.24
2017-04-09T01:36:21.688Z,54.84
2017-04-09T01:37:21.379Z,54.34
2017-04-09T01:38:21.106Z,75.96
2017-04-09T01:39:20.875Z,96.09
2017-04-09T01:40:20.671Z,75.74
2017-04-09T01:41:20.427Z,94.10
2017-04-09T01:42:20.268Z,101.87
2017-04-09T01:43:20.016Z,82.39
2017-04-09T01:44:19.735Z,69.10
2017-04-09T01:45:19.546Z,62.59
2017-04-09T01:46:19.383Z,79.57
2017-04-09T01:47:19.243Z,70.43
2017-04-09T01:49:27.973Z,62.53
2017-04-09T01:50:27.699Z,55.93
2017-04-09T01:51:27.459Z,83.59
2017-04-09T01:52:27.167Z,63.83
2017-04-09T01:53:26.891Z,56.50
2017-04-09T01:54:26.581Z,51.64
2017-04-09T01:55:26.235Z,59.57
2017-04-09T01:56:25.950Z,71.56
2017-04-09T01:57:25.853Z,55.16
2017-04-09T01:58:25.533Z,76.53
2017-04-09T01:59:25.254Z,69.57
2017-04-09T02:00:24.951Z,85.34
2017-04-09T02:01:24.675Z,58.86
2017-04-09T02:02:24.441Z,68.51
2017-04-09T02:03:24.174Z,91.67
2017-04-09T02:04:23.890Z,73.76
2017-04-09T02:05:23.603Z,87.23
2017-04-09T02:06:23.316Z,95.14
2017-04-09T02:07:22.987Z,63.83
2017-04-09T02:08:22.697Z,80.33
2017-04-09T02:09:22.393Z,77.87
2017-04-09T02:10:22.223Z,100.74
2017-04-09T02:11:22.274Z,65.29
2017-04-09T02:12:22.101Z,91.97
2017-04-09T02:13:21.930Z,82.46
2017-04-09T02:14:21.696Z,93.70
2017-04-09T02:15:21.420Z,70.76
2017-04-09T02:16:21.124Z,117.83
2017-04-09T02:17:20.855Z,69.69
2017-04-09T02:18:20.628Z,88.40
2017-04-09T02:19:20.327Z,74.36
2017-04-09T02:20:20.075Z,97.34
2017-04-09T02:21:19.915Z,73.10
2017-04-09T02:22:19.681Z,76.80
2017-04-09T02:23:19.469Z,108.07
2017-04-09T02:24:19.195Z,88.17
2017-04-09T02:25:18.898Z,88.51
2017-04-09T02:26:18.580Z,72.96
2017-04-09T02:27:18.352Z,79.34
2017-04-09T02:28:18.050Z,81.50
2017-04-09T02:29:17.711Z,97.27
2017-04-09T02:30:17.509Z,79.43
2017-04-09T02:31:17.376Z,71.61
2017-04-09T02:32:17.072Z,157.27
2017-04-09T02:33:17.268Z,72.51
2017-04-09T02:34:16.976Z,75.94
2017-04-09T02:35:16.706Z,77.74
2017-04-09T02:36:16.462Z,84.44
2017-04-09T02:37:16.196Z,66.60
2017-04-09T02:38:15.873Z,63.51
2017-04-09T02:39:15.583Z,70.97
2017-04-09T02:40:15.232Z,66.14
2017-04-09T02:41:14.941Z,73.84
2017-04-09T02:42:14.862Z,97.04
2017-04-09T02:43:14.592Z,65.16
2017-04-09T02:44:14.280Z,64.00
2017-04-09T02:45:14.085Z,60.41
2017-04-09T02:46:13.827Z,65.16
2017-04-09T02:47:13.536Z,72.90
2017-04-09T02:48:13.244Z,84.33
2017-04-09T02:49:12.949Z,72.67
2017-04-09T02:50:12.696Z,87.33
2017-04-09T02:51:12.407Z,72.21
2017-04-09T02:52:12.352Z,63.44
2017-04-09T02:53:12.107Z,62.99
2017-04-09T02:54:11.954Z,61.13
2017-04-09T02:55:11.640Z,73.41
2017-04-09T02:56:11.531Z,56.99
2017-04-09T02:57:11.311Z,84.89
2017-04-09T02:58:11.019Z,65.71
2017-04-09T02:59:10.712Z,99.17
2017-04-09T03:00:10.569Z,67.93
2017-04-09T03:01:10.266Z,65.91
2017-04-09T03:02:09.996Z,76.27
2017-04-09T03:03:09.746Z,78.87
2017-04-09T03:04:09.440Z,80.90
2017-04-09T03:05:09.154Z,71.07
2017-04-09T03:06:08.855Z,200.63
2017-04-09T03:07:08.514Z,116.94
2017-04-09T03:08:08.280Z,448.86
2017-04-09T03:09:08.056Z,449.43
2017-04-09T03:10:07.726Z,245.73
2017-04-09T03:11:07.496Z,481.53
2017-04-09T03:12:07.223Z,238.10
2017-04-09T03:13:06.968Z,317.09
2017-04-09T03:14:06.644Z,204.59
2017-04-09T03:15:06.382Z,369.80
2017-04-09T03:16:06.119Z,559.10
2017-04-09T03:17:06.058Z,1058.69
2017-04-09T03:18:05.775Z,564.36
2017-04-09T03:19:05.541Z,105.16
2017-04-09T03:20:05.227Z,691.76
2017-04-09T03:21:04.946Z,350.11
2017-04-09T03:22:04.732Z,827.51
2017-04-09T03:23:04.448Z,265.30
2017-04-09T03:24:04.137Z,109.53
2017-04-09T03:25:03.848Z,875.23
2017-04-09T03:26:03.586Z,460.90
2017-04-09T03:27:03.543Z,270.93
2017-04-09T03:28:03.243Z,356.07
2017-04-09T03:29:02.950Z,100.26
2017-04-09T03:30:02.610Z,208.10
2017-04-09T03:31:02.319Z,347.56
2017-04-09T03:32:02.060Z,336.99
2017-04-09T03:33:01.824Z,98.91
2017-04-09T03:34:01.491Z,171.00
2017-04-09T03:35:01.227Z,105.44
2017-04-09T03:36:00.943Z,515.50
2017-04-09T03:37:00.655Z,260.71
2017-04-09T03:38:00.543Z,196.43
2017-04-09T03:39:00.306Z,84.23
2017-04-09T03:40:00.234Z,76.43
2017-04-09T03:41:00.888Z,79.33
2017-04-09T03:42:00.620Z,526.04
2017-04-09T03:43:00.556Z,538.66
2017-04-09T03:44:00.264Z,112.47
2017-04-09T03:44:59.990Z,86.06
2017-04-09T03:46:00.024Z,136.41
2017-04-09T03:46:59.867Z,110.01
2017-04-09T03:47:59.532Z,72.00
2017-04-09T03:48:59.271Z,73.66
2017-04-09T03:49:59.018Z,94.59
2017-04-09T03:50:58.704Z,82.24
2017-04-09T03:51:58.384Z,55.87
2017-04-09T03:52:58.060Z,86.31
2017-04-09T03:53:57.785Z,78.14
2017-04-09T03:54:57.487Z,64.04
2017-04-09T03:55:57.155Z,47.30
2017-04-09T03:56:56.892Z,287.37
2017-04-09T03:57:56.561Z,193.00
2017-04-09T03:58:56.260Z,65.16
2017-04-09T03:59:55.927Z,188.46
2017-04-09T04:00:55.887Z,310.43
2017-04-09T04:01:55.682Z,204.43
2017-04-09T04:02:55.610Z,68.79
2017-04-09T04:03:55.286Z,66.90
2017-04-09T04:04:55.032Z,99.93
2017-04-09T04:05:54.727Z,486.34
2017-04-09T04:06:54.425Z,662.79
2017-04-09T04:07:54.095Z,634.24
2017-04-09T04:08:53.808Z,167.34
2017-04-09T04:09:53.479Z,151.76
2017-04-09T04:10:53.207Z,259.37
2017-04-09T04:11:52.928Z,449.30
2017-04-09T04:12:52.597Z,240.51
2017-04-09T04:13:52.311Z,1015.79
2017-04-09T04:14:52.020Z,313.94
2017-04-09T04:15:51.782Z,185.10
2017-04-09T04:16:51.472Z,1062.99
2017-04-09T04:17:51.163Z,584.73
2017-04-09T04:18:50.866Z,432.69
2017-04-09T04:19:50.631Z,827.59
2017-04-09T04:20:50.363Z,654.29
2017-04-09T04:21:50.312Z,1291.31
2017-04-09T04:22:49.951Z,930.70
2017-04-09T04:23:50.659Z,1220.26
2017-04-09T04:24:50.443Z,610.57
2017-04-09T04:25:50.164Z,865.03
2017-04-09T04:26:49.851Z,797.59
2017-04-09T04:27:49.591Z,877.47
2017-04-09T04:28:49.271Z,445.94
2017-04-09T04:29:48.975Z,773.24
2017-04-09T04:30:48.729Z,450.20
2017-04-09T04:31:48.415Z,901.47
2017-04-09T04:32:48.063Z,795.97
2017-04-09T04:33:47.727Z,427.69
2017-04-09T04:34:47.403Z,349.83
2017-04-09T04:35:47.131Z,355.63
2017-04-09T04:36:46.831Z,513.41
2017-04-09T04:37:46.536Z,622.81
2017-04-09T04:38:46.223Z,593.13
2017-04-09T04:39:45.954Z,741.83
2017-04-09T04:40:45.679Z,475.99
2017-04-09T04:41:45.340Z,605.64
2017-04-09T04:42:45.092Z,550.74
2017-04-09T04:43:45.085Z,514.61
2017-04-09T04:44:44.946Z,403.64
2017-04-09T04:45:44.648Z,651.06
2017-04-09T04:46:44.540Z,600.53
2017-04-09T04:47:44.249Z,660.80
2017-04-09T04:48:43.926Z,354.47
2017-04-09T04:49:43.599Z,544.09
2017-04-09T04:50:43.263Z,557.71
2017-04-09T04:51:42.963Z,393.09
2017-04-09T04:52:42.656Z,213.97
2017-04-09T04:53:42.452Z,203.31
2017-04-09T04:54:42.121Z,242.01
2017-04-09T04:55:41.840Z,362.49
2017-04-09T04:56:41.549Z,87.83
2017-04-09T04:57:41.218Z,71.24
2017-04-09T04:58:40.915Z,90.11
2017-04-09T04:59:40.612Z,95.66
2017-04-09T05:00:40.330Z,67.50
2017-04-09T05:01:40.031Z,86.87
2017-04-09T05:02:39.719Z,64.71
2017-04-09T05:03:39.374Z,85.34
2017-04-09T05:04:39.030Z,64.97
2017-04-09T05:05:38.862Z,99.24
2017-04-09T05:06:38.519Z,59.07
2017-04-09T05:07:38.385Z,57.01
2017-04-09T05:08:38.148Z,63.26
2017-04-09T05:09:37.834Z,58.46
2017-04-09T05:10:37.587Z,61.79
2017-04-09T05:11:37.284Z,67.91
2017-04-09T05:12:36.976Z,56.10
2017-04-09T05:13:36.659Z,69.97
2017-04-09T05:14:36.386Z,100.97
2017-04-09T05:15:36.068Z,62.46
2017-04-09T05:16:35.731Z,79.86
2017-04-09T05:17:35.416Z,125.27
2017-04-09T05:18:35.084Z,80.87
2017-04-09T05:19:34.771Z,85.93
2017-04-09T05:20:34.459Z,134.93
2017-04-09T05:21:34.175Z,371.43
2017-04-09T05:22:33.875Z,218.61
2017-04-09T05:23:33.590Z,298.57
2017-04-09T05:24:33.325Z,126.73
2017-04-09T05:25:32.985Z,120.30
2017-04-09T05:26:32.720Z,93.39
2017-04-09T05:27:32.415Z,91.79
2017-04-09T05:28:32.299Z,231.46
2017-04-09T05:29:32.020Z,545.99
2017-04-09T05:30:31.758Z,225.53
2017-04-09T05:31:31.508Z,265.00
2017-04-09T05:32:31.365Z,530.87
2017-04-09T05:33:31.059Z,620.49
2017-04-09T05:34:30.741Z,428.01
2017-04-09T05:35:30.436Z,224.09
2017-04-09T05:36:30.123Z,244.27
2017-04-09T05:37:29.788Z,155.46
2017-04-09T05:38:29.549Z,101.61
2017-04-09T05:39:29.270Z,204.91
2017-04-09T05:40:28.939Z,241.70
2017-04-09T05:41:28.632Z,272.74
2017-04-09T05:42:28.319Z,347.73
2017-04-09T05:43:28.055Z,189.09
2017-04-09T05:44:28.136Z,327.34
2017-04-09T05:45:27.857Z,421.40
2017-04-09T05:46:27.545Z,192.50
2017-04-09T05:47:27.228Z,371.97
2017-04-09T05:48:26.867Z,176.56
2017-04-09T05:49:26.767Z,179.93
2017-04-09T05:50:26.498Z,189.14
2017-04-09T05:51:26.415Z,154.89
2017-04-09T05:52:26.164Z,274.51
2017-04-09T05:53:25.803Z,444.79
2017-04-09T05:54:25.528Z,214.90
2017-04-09T05:55:25.246Z,572.24
2017-04-09T05:56:24.906Z,516.09
2017-04-09T05:57:24.608Z,476.34
2017-04-09T05:58:24.275Z,433.09
2017-04-09T05:59:24.280Z,862.80
2017-04-09T06:00:23.963Z,496.64
2017-04-09T06:01:23.636Z,775.40
2017-04-09T06:02:23.320Z,832.44
2017-04-09T06:03:22.976Z,798.90
2017-04-09T06:04:22.683Z,694.01
2017-04-09T06:05:22.366Z,834.53
2017-04-09T06:06:22.071Z,695.76
2017-04-09T06:07:21.780Z,605.66
2017-04-09T06:08:21.532Z,697.57
2017-04-09T06:09:21.320Z,814.37
2017-04-09T06:10:21.084Z,423.87
2017-04-09T06:11:20.770Z,470.27
2017-04-09T06:12:20.892Z,494.43
2017-04-09T06:13:20.666Z,386.63
2017-04-09T06:14:20.388Z,383.67
2017-04-09T06:15:20.183Z,572.86
2017-04-09T06:16:19.893Z,302.80
2017-04-09T06:17:19.607Z,545.07
2017-04-09T06:18:19.397Z,416.01
2017-04-09T06:19:19.158Z,197.17
2017-04-09T06:20:18.819Z,387.24
2017-04-09T06:21:18.524Z,318.93
2017-04-09T06:22:18.248Z,305.10
2017-04-09T06:23:17.947Z,118.30
2017-04-09T06:24:17.692Z,376.96
2017-04-09T06:25:17.400Z,558.47
2017-04-09T06:26:17.110Z,204.30
2017-04-09T06:27:16.782Z,278.46
2017-04-09T06:28:16.448Z,98.67
2017-04-09T06:29:16.115Z,309.54
2017-04-09T06:30:15.864Z,149.11
2017-04-09T06:31:15.580Z,303.71
2017-04-09T06:32:15.451Z,135.66
2017-04-09T06:33:15.339Z,201.67
2017-04-09T06:34:15.071Z,134.07
2017-04-09T06:35:14.927Z,143.63
2017-04-09T06:36:14.679Z,118.44
2017-04-09T06:37:14.367Z,149.54
2017-04-09T06:38:14.082Z,88.81
2017-04-09T06:39:13.840Z,143.89
2017-04-09T06:40:13.555Z,47.00
2017-04-09T06:41:13.225Z,58.13
2017-04-09T06:42:13.008Z,66.61
2017-04-09T06:43:12.712Z,59.23
2017-04-09T06:44:12.578Z,69.04
2017-04-09T06:45:12.325Z,55.10
2017-04-09T06:46:12.073Z,55.66
2017-04-09T06:47:11.791Z,50.83
2017-04-09T06:48:11.491Z,49.37
2017-04-09T06:49:11.247Z,55.96
2017-04-09T06:50:11.011Z,49.44
2017-04-09T06:51:10.703Z,51.64
2017-04-09T06:52:10.399Z,54.33
2017-04-09T06:53:10.133Z,51.06
2017-04-09T06:54:09.946Z,51.21
2017-04-09T06:55:09.659Z,50.20
2017-04-09T06:56:09.809Z,54.21
2017-04-09T06:57:09.574Z,46.63
2017-04-09T06:58:09.371Z,48.07
2017-04-09T06:59:09.104Z,50.61
2017-04-09T07:00:08.823Z,52.17
2017-04-09T07:01:08.690Z,47.79
2017-04-09T07:02:08.655Z,53.36
2017-04-09T07:03:08.409Z,50.74
2017-04-09T07:04:08.111Z,48.74
2017-04-09T07:05:07.811Z,50.93
2017-04-09T07:06:07.511Z,48.13
2017-04-09T07:07:07.236Z,49.46
2017-04-09T07:08:07.002Z,50.80
2017-04-09T07:09:06.764Z,48.00
2017-04-09T07:10:06.461Z,47.76
2017-04-09T07:11:06.167Z,50.03
2017-04-09T07:12:06.224Z,51.86
2017-04-09T07:13:05.943Z,46.34
2017-04-09T07:14:05.644Z,47.36
2017-04-09T07:15:05.343Z,50.21
2017-04-09T07:16:06.010Z,45.60
2017-04-09T07:17:05.897Z,52.39
2017-04-09T07:18:05.619Z,46.24
2017-04-09T07:19:05.572Z,48.03
2017-04-09T07:20:05.322Z,46.06
2017-04-09T07:21:05.035Z,49.53
2017-04-09T07:22:04.783Z,46.40
2017-04-09T07:23:04.569Z,45.00
2017-04-09T07:24:04.272Z,45.29
2017-04-09T07:25:04.079Z,43.57
2017-04-09T07:26:03.807Z,42.87
2017-04-09T07:27:03.507Z,42.24
2017-04-09T07:28:03.243Z,38.64
2017-04-09T07:29:03.013Z,37.03
2017-04-09T07:30:02.753Z,36.43
2017-04-09T07:31:02.531Z,39.66
2017-04-09T07:32:02.297Z,35.41
2017-04-09T07:33:02.040Z,33.83
2017-04-09T07:34:01.893Z,33.54
2017-04-09T07:35:01.624Z,33.47
2017-04-09T07:36:01.371Z,28.76
2017-04-09T07:37:01.071Z,26.33
2017-04-09T07:38:01.085Z,28.39
2017-04-09T07:39:00.839Z,28.19
2017-04-09T07:40:01.038Z,26.31
2017-04-09T07:41:00.813Z,29.21
2017-04-09T07:42:00.868Z,29.09
2017-04-09T07:43:00.608Z,31.07
2017-04-09T07:44:00.369Z,29.26
2017-04-09T07:45:00.070Z,29.84
2017-04-09T07:45:59.984Z,29.71
2017-04-09T07:46:59.745Z,30.17
2017-04-09T07:47:59.497Z,28.87
2017-04-09T07:48:59.320Z,28.19
2017-04-09T07:49:59.171Z,29.07
2017-04-09T07:50:59.006Z,26.84
2017-04-09T07:51:58.739Z,29.01
2017-04-09T07:52:58.495Z,26.51
2017-04-09T07:53:58.221Z,27.47
2017-04-09T07:54:57.899Z,32.60
2017-04-09T07:55:58.311Z,27.84
2017-04-09T07:56:58.123Z,26.77
2017-04-09T07:57:57.836Z,26.90
2017-04-09T07:58:57.568Z,29.70
2017-04-09T07:59:57.283Z,30.60
2017-04-09T08:00:57.116Z,29.30
2017-04-09T08:01:56.887Z,27.49
2017-04-09T08:02:56.766Z,27.61
2017-04-09T08:03:56.514Z,28.97
2017-04-09T08:04:56.458Z,28.34
2017-04-09T08:05:56.252Z,29.51
2017-04-09T08:06:55.943Z,28.01
2017-04-09T08:07:55.729Z,29.10
2017-04-09T08:08:55.407Z,27.53
2017-04-09T08:09:55.174Z,29.50
2017-04-09T08:10:54.891Z,30.46
2017-04-09T08:11:54.861Z,30.26
2017-04-09T08:12:54.768Z,30.23
2017-04-09T08:13:54.985Z,31.49
2017-04-09T08:14:55.230Z,27.30
2017-04-09T08:15:54.969Z,28.47
2017-04-09T08:16:55.448Z,27.53
2017-04-09T08:17:56.382Z,28.30
2017-04-09T08:18:56.763Z,27.84
2017-04-09T08:19:56.486Z,28.37
2017-04-09T08:20:56.525Z,26.30
2017-04-09T08:21:58.504Z,29.11
2017-04-09T08:22:58.192Z,28.67
2017-04-09T08:23:57.942Z,27.86
2017-04-09T08:24:58.877Z,28.07
2017-04-09T08:25:59.583Z,28.29
2017-04-09T08:26:59.547Z,28.63
2017-04-09T08:28:03.035Z,26.20
2017-04-09T08:29:05.371Z,27.11
2017-04-09T08:30:07.627Z,27.86
2017-04-09T08:31:07.387Z,29.26
2017-04-09T08:32:09.220Z,27.37
2017-04-09T08:33:08.925Z,26.33
2017-04-09T08:34:08.776Z,27.10
2017-04-09T08:35:08.587Z,26.81
2017-04-09T08:36:08.312Z,27.00
2017-04-09T08:37:08.024Z,28.02
2017-04-09T08:38:07.929Z,27.60
2017-04-09T08:39:07.788Z,26.37
2017-04-09T08:40:07.854Z,27.95
2017-04-09T08:41:07.720Z,25.15
2017-04-09T08:42:07.643Z,23.75
2017-04-09T08:43:07.416Z,29.50
2017-04-09T08:44:07.122Z,28.44
2017-04-09T08:45:06.846Z,26.14
2017-04-09T08:46:06.995Z,29.31
2017-04-09T08:47:06.827Z,27.39
2017-04-09T08:48:06.563Z,27.83
2017-04-09T08:49:06.239Z,26.63
2017-04-09T08:50:06.021Z,27.17
2017-04-09T08:51:05.765Z,27.60
2017-04-09T08:52:06.358Z,26.23
2017-04-09T08:53:07.829Z,27.86
2017-04-09T08:54:07.487Z,27.37
2017-04-09T08:55:07.419Z,27.51
2017-04-09T08:56:07.183Z,24.74
2017-04-09T08:57:07.384Z,25.47
2017-04-09T08:58:08.474Z,25.86
2017-04-09T08:59:08.148Z,23.97
2017-04-09T09:00:08.378Z,25.10
2017-04-09T09:01:08.064Z,22.90
2017-04-09T09:02:07.787Z,22.10
2017-04-09T09:03:07.549Z,20.97
2017-04-09T09:04:07.853Z,22.07
2017-04-09T09:05:07.674Z,24.51
2017-04-09T09:06:07.703Z,20.00
2017-04-09T09:07:07.480Z,21.61
2017-04-09T09:08:07.271Z,23.24
2017-04-09T09:09:07.623Z,23.23
2017-04-09T09:10:07.371Z,21.11
2017-04-09T09:11:07.675Z,18.94
2017-04-09T09:12:07.368Z,21.50
2017-04-09T09:13:07.902Z,20.00
2017-04-09T09:14:07.628Z,19.59
2017-04-09T09:15:07.891Z,22.47
2017-04-09T09:16:07.593Z,17.71
2017-04-09T09:17:07.324Z,19.16
2017-04-09T09:18:07.740Z,19.71
2017-04-09T09:19:07.466Z,20.04
2017-04-09T09:20:07.545Z,19.60
2017-04-09T09:21:07.313Z,21.66
2017-04-09T09:22:07.136Z,23.54
2017-04-09T09:23:06.940Z,21.43
2017-04-09T09:24:06.719Z,21.77
2017-04-09T09:25:06.494Z,20.93
2017-04-09T09:26:06.236Z,20.49
2017-04-09T09:27:05.960Z,21.54
2017-04-09T09:28:05.680Z,20.20
2017-04-09T09:29:05.412Z,20.17
2017-04-09T09:30:05.184Z,20.71
2017-04-09T09:31:04.931Z,20.84
2017-04-09T09:32:05.715Z,20.93
2017-04-09T09:33:05.729Z,20.74
2017-04-09T09:34:05.424Z,18.10
2017-04-09T09:35:05.147Z,19.71
2017-04-09T09:36:04.930Z,19.06
2017-04-09T09:37:04.737Z,19.80
2017-04-09T09:38:04.468Z,22.93
2017-04-09T09:39:04.457Z,22.00
2017-04-09T09:40:04.194Z,21.50
2017-04-09T09:41:04.037Z,19.07
2017-04-09T09:42:03.777Z,19.66
2017-04-09T09:43:03.673Z,20.79
2017-04-09T09:44:03.490Z,21.10
2017-04-09T09:45:03.277Z,20.73
2017-04-09T09:46:03.063Z,18.56
2017-04-09T09:47:02.755Z,17.10
2017-04-09T09:48:02.546Z,19.90
2017-04-09T09:49:02.337Z,18.07
2017-04-09T09:50:02.065Z,19.01
2017-04-09T09:51:01.888Z,21.34
2017-04-09T09:52:01.683Z,21.31
2017-04-09T09:53:01.417Z,21.51
2017-04-09T09:54:01.186Z,18.89
2017-04-09T09:55:00.979Z,20.00
2017-04-09T09:56:00.733Z,20.10
2017-04-09T09:57:00.555Z,18.57
2017-04-09T09:58:00.629Z,20.93
2017-04-09T09:59:01.203Z,18.79
2017-04-09T10:00:00.957Z,19.97
2017-04-09T10:01:00.666Z,19.20
2017-04-09T10:02:00.482Z,19.64
2017-04-09T10:03:00.263Z,18.54
2017-04-09T10:04:00.248Z,20.87
2017-04-09T10:05:00.013Z,24.16
2017-04-09T10:06:00.094Z,23.76
2017-04-09T10:06:59.914Z,24.04
2017-04-09T10:07:59.673Z,24.09
2017-04-09T10:08:59.430Z,22.66
2017-04-09T10:09:59.190Z,25.53
2017-04-09T10:10:58.938Z,27.11
2017-04-09T10:11:58.700Z,25.70
2017-04-09T10:12:58.514Z,26.23
2017-04-09T10:13:59.217Z,29.04
2017-04-09T10:15:00.845Z,31.04
2017-04-09T10:16:00.709Z,37.11
2017-04-09T10:17:00.539Z,35.83
2017-04-09T10:18:00.959Z,35.16
2017-04-09T10:19:00.762Z,34.46
2017-04-09T10:20:00.536Z,37.27
2017-04-09T10:21:00.231Z,34.96
2017-04-09T10:21:59.919Z,38.87
2017-04-09T10:22:59.651Z,36.60
2017-04-09T10:24:00.130Z,36.30
2017-04-09T10:24:59.890Z,34.93
2017-04-09T10:25:59.654Z,39.71
2017-04-09T10:26:59.471Z,38.53
2017-04-09T10:27:59.256Z,44.41
2017-04-09T10:28:59.301Z,42.11
2017-04-09T10:29:59.075Z,40.13
2017-04-09T10:30:59.107Z,38.27
2017-04-09T10:31:58.911Z,36.81
2017-04-09T10:32:58.740Z,41.11
2017-04-09T10:33:58.579Z,38.79
2017-04-09T10:35:01.639Z,37.46
2017-04-09T10:36:02.288Z,39.56
2017-04-09T10:37:02.188Z,42.94
2017-04-09T10:38:01.976Z,43.14
2017-04-09T10:39:01.760Z,36.83
2017-04-09T10:40:01.619Z,39.81
2017-04-09T10:41:01.572Z,39.90
2017-04-09T10:42:01.301Z,42.10
2017-04-09T10:43:01.026Z,36.73
2017-04-09T10:44:00.745Z,35.43
2017-04-09T10:45:00.556Z,37.97
2017-04-09T10:46:00.341Z,40.37
2017-04-09T10:47:00.129Z,39.54
2017-04-09T10:48:00.036Z,37.59
2017-04-09T10:49:00.140Z,39.40
2017-04-09T10:49:59.942Z,39.00
2017-04-09T10:50:59.714Z,38.14
2017-04-09T10:51:59.745Z,37.77
2017-04-09T10:52:59.649Z,40.93
2017-04-09T10:53:59.648Z,35.64
2017-04-09T10:54:59.602Z,38.01
2017-04-09T10:55:59.530Z,40.13
2017-04-09T10:56:59.351Z,39.03
2017-04-09T10:57:59.127Z,34.11
2017-04-09T10:58:58.895Z,38.51
2017-04-09T10:59:58.695Z,36.03
2017-04-09T11:00:58.516Z,37.81
2017-04-09T11:01:58.684Z,36.51
2017-04-09T11:02:58.485Z,36.44
2017-04-09T11:03:58.256Z,35.26
2017-04-09T11:05:12.784Z,35.69
2017-04-09T11:06:12.535Z,38.00
2017-04-09T11:07:12.371Z,34.46
2017-04-09T11:08:12.148Z,34.54
2017-04-09T11:09:12.306Z,33.81
2017-04-09T11:10:12.085Z,34.40
2017-04-09T11:11:11.873Z,31.81
2017-04-09T11:12:11.736Z,33.57
2017-04-09T11:13:12.558Z,32.49
2017-04-09T11:14:12.377Z,33.91
2017-04-09T11:15:16.911Z,31.40
2017-04-09T11:16:16.838Z,31.41
2017-04-09T11:17:17.384Z,30.61
2017-04-09T11:18:17.631Z,30.99
2017-04-09T11:19:17.527Z,34.31
2017-04-09T11:20:19.438Z,35.11
2017-04-09T11:21:21.292Z,33.49
2017-04-09T11:22:25.158Z,32.11
2017-04-09T11:23:25.816Z,33.11
2017-04-09T11:24:25.934Z,30.33
2017-04-09T11:25:26.661Z,31.50
2017-04-09T11:26:27.769Z,31.66
2017-04-09T11:27:27.928Z,31.80
2017-04-09T11:28:29.035Z,29.94
2017-04-09T11:29:31.332Z,31.09
2017-04-09T11:30:31.175Z,31.23
2017-04-09T11:31:32.891Z,32.09
2017-04-09T11:32:32.760Z,33.54
2017-04-09T11:33:33.419Z,31.24
2017-04-09T11:34:33.997Z,31.41
2017-04-09T11:35:33.963Z,31.66
2017-04-09T11:36:33.992Z,34.21
2017-04-09T11:37:33.732Z,34.76
2017-04-09T11:38:34.683Z,33.34
2017-04-09T11:39:34.528Z,31.09
2017-04-09T11:40:38.595Z,28.39
2017-04-09T11:41:38.606Z,29.46
2017-04-09T11:42:38.399Z,28.11
2017-04-09T11:43:38.144Z,30.19
2017-04-09T11:44:38.011Z,26.54
2017-04-09T11:45:37.951Z,29.57
2017-04-09T11:46:37.692Z,30.24
2017-04-09T11:47:37.447Z,29.86
2017-04-09T11:48:37.699Z,29.74
2017-04-09T11:49:37.475Z,28.96
2017-04-09T11:50:37.221Z,29.31
2017-04-09T11:51:37.020Z,29.41
2017-04-09T11:52:37.217Z,27.27
2017-04-09T11:53:37.100Z,30.10
2017-04-09T11:54:36.975Z,28.06
2017-04-09T11:55:37.588Z,26.90
2017-04-09T11:56:37.796Z,27.34
2017-04-09T11:57:37.579Z,26.66
2017-04-09T11:58:37.863Z,27.01
2017-04-09T11:59:37.743Z,26.44
2017-04-09T12:00:37.495Z,27.16
2017-04-09T12:01:37.398Z,28.50
2017-04-09T12:02:37.236Z,27.44
2017-04-09T12:03:37.101Z,24.77
2017-04-09T12:04:36.826Z,28.06
2017-04-09T12:05:36.618Z,27.70
2017-04-09T12:06:36.857Z,28.03
2017-04-09T12:07:36.690Z,25.94
2017-04-09T12:08:36.659Z,27.01
2017-04-09T12:09:36.464Z,26.96
2017-04-09T12:10:36.293Z,26.01
2017-04-09T12:11:36.104Z,29.21
2017-04-09T12:12:35.884Z,29.23
2017-04-09T12:13:36.254Z,26.16
2017-04-09T12:14:36.084Z,27.14
2017-04-09T12:15:35.822Z,25.71
2017-04-09T12:16:35.571Z,26.21
2017-04-09T12:17:35.380Z,25.63
2017-04-09T12:18:35.203Z,25.47
2017-04-09T12:19:35.349Z,24.56
2017-04-09T12:20:35.237Z,24.63
2017-04-09T12:21:35.174Z,25.34
2017-04-09T12:22:35.351Z,24.23
2017-04-09T12:23:35.156Z,25.24
2017-04-09T12:24:36.514Z,24.94
2017-04-09T12:25:36.273Z,26.10
2017-04-09T12:26:37.053Z,24.71
2017-04-09T12:27:37.319Z,25.54
2017-04-09T12:28:37.123Z,23.29
2017-04-09T12:29:37.008Z,23.87
2017-04-09T12:30:37.001Z,24.99
2017-04-09T12:31:36.744Z,22.34
2017-04-09T12:32:36.536Z,23.49
2017-04-09T12:33:37.027Z,24.79
2017-04-09T12:34:36.804Z,26.01
2017-04-09T12:35:36.608Z,25.44
2017-04-09T12:36:37.110Z,25.16
2017-04-09T12:37:37.123Z,24.79
2017-04-09T12:38:37.086Z,24.84
2017-04-09T12:39:36.855Z,26.97
2017-04-09T12:40:36.734Z,25.37
2017-04-09T12:41:36.634Z,26.30
2017-04-09T12:42:36.671Z,24.86
2017-04-09T12:43:36.542Z,25.61
2017-04-09T12:44:36.771Z,24.09
2017-04-09T12:45:37.506Z,24.01
2017-04-09T12:46:38.006Z,24.49